Britannia — 2HHG5 — position and weather

sailwx.info

Track history (hours):
 
Tides and Currents Weather Stations Pressure Air Temp Water Temp Dewpoint Dewpoint Depression Visibility Wind Speed Wind Dir Waves Ship Positions

Britannia

Last reported at 2017-Oct-19 23:30 UTC. Time now 2017-Oct-19 23:55 UTC.
Position N 43°07' E 007°37'.

Length 330 m; draft 8.5 m.

Type: Passenger vessel. MMSI: 235106595.

Date/timePositionNaut miles runAvg speedWind from/ knotsBaromVisibWave heightAir tempDewpointWater temp
2017-Oct-19 23:30N 43°07' E 007°37'1615.4
2017-Oct-19 22:28N 42°59' E 007°18'919.6
2017-Oct-19 22:00N 42°58' E 007°06'1817.8
2017-Oct-19 21:00N 42°54' E 006°42'6018.7 060 / 301013.210.8 19.016.519.2
2017-Oct-19 17:47N 43°05' E 005°21'619.2
2017-Oct-19 17:30N 43°08' E 005°15'917.9
2017-Oct-19 17:01N 43°15' E 005°09'4224.4
2017-Oct-19 17:00N 43°12' E 005°06'1225.4 110 / 361009.510.8 22.013.019.3
2017-Oct-19 16:30N 43°21' E 005°18'1 2.4
2017-Oct-19 15:58N 43°21' E 005°20'0 0.0
2017-Oct-19 15:28N 43°21' E 005°20'0 0.0
2017-Oct-19 14:58N 43°21' E 005°20'0 0.0
2017-Oct-19 14:28N 43°21' E 005°20'0 0.0
2017-Oct-19 13:58N 43°21' E 005°20'0 0.0
2017-Oct-19 13:28N 43°21' E 005°20'0 0.0
2017-Oct-19 12:58N 43°21' E 005°20'0 0.0
2017-Oct-19 12:28N 43°21' E 005°20'0 0.0
2017-Oct-19 11:58N 43°21' E 005°20'0 0.0
2017-Oct-19 11:28N 43°21' E 005°20'0 0.0
2017-Oct-19 10:58N 43°21' E 005°20'0 0.0
2017-Oct-19 10:28N 43°21' E 005°20'0 0.0
2017-Oct-19 09:52N 43°21' E 005°20'0 0.0
2017-Oct-19 08:54N 43°21' E 005°20'0 0.0
2017-Oct-19 08:24N 43°21' E 005°20'0 0.0
2017-Oct-19 08:00N 43°21' E 005°20'0 0.0
2017-Oct-19 07:30N 43°21' E 005°20'0 0.0
2017-Oct-19 07:00N 43°21' E 005°20'0 0.0
2017-Oct-19 06:30N 43°21' E 005°20'0 0.0
2017-Oct-19 06:00N 43°21' E 005°20'0 0.0
2017-Oct-19 05:30N 43°21' E 005°20'0 0.0
2017-Oct-19 05:00N 43°21' E 005°20'0 0.8
2017-Oct-19 04:30N 43°21' E 005°19'3 5.4
2017-Oct-19 04:01N 43°19' E 005°17'815.8
2017-Oct-19 03:30N 43°13' E 005°10'1019.4
2017-Oct-19 03:01N 43°05' E 005°01'1019.2
2017-Oct-19 02:30N 42°58' E 004°53'918.7
2017-Oct-19 02:00N 42°51' E 004°44'11732.4
2017-Oct-19 02:00N 42°42' E 004°36'3 5.9 110 / 451010.110.8 19.017.419.2
2017-Oct-19 01:30N 42°45' E 004°36'917.1
2017-Oct-19 01:00N 42°38' E 004°29'916.9
2017-Oct-19 00:28N 42°32' E 004°21'11817.4
2017-Oct-18 17:43N 41°17' E 002°18'517.0
2017-Oct-18 17:26N 41°15' E 002°12'4 0.3
2017-Oct-18 05:22N 41°19' E 002°10'712.0
2017-Oct-18 04:47N 41°12' E 002°09'516.6
2017-Oct-18 04:31N 41°08' E 002°06'816.5
2017-Oct-18 04:01N 41°00' E 002°01'6333.2
2017-Oct-18 04:00N 41°06' E 002°00'6120.2 030 / 71015.710.8 22.615.823.0
2017-Oct-18 01:00N 40°12' E 001°24'14421.8 140 / 121017.310.8 21.617.923.2
2017-Oct-17 18:22N 38°05' W 000°05'820.9
2017-Oct-17 17:59N 37°58' W 000°10'1020.9
2017-Oct-17 17:31N 37°50' W 000°17'1020.8
2017-Oct-17 17:01N 37°41' W 000°24'5314.2
2017-Oct-17 17:00N 37°36' W 000°24'714.1 160 / 51019.410.8 22.518.123.3
2017-Oct-17 16:31N 37°33' W 000°32'1019.6
2017-Oct-17 16:01N 37°31' W 000°44'1020.4
2017-Oct-17 15:30N 37°32' W 000°57'4 0.4
2017-Oct-17 05:24N 37°36' W 000°59'11 9.8
2017-Oct-17 04:20N 37°26' W 001°04'4312.9
2017-Oct-17 01:00N 36°48' W 001°30'7218.1 030 / 151022.410.8 21.316.622.2
2017-Oct-16 21:00N 36°12' W 002°48'6315.8 070 / 91024.210.8 20.518.620.7
2017-Oct-16 17:00N 36°06' W 004°06'5120.2 090 / 131022.8 5.4 21.417.221.9
2017-Oct-16 14:27N 35°60' W 005°09'1818.5
2017-Oct-16 13:30N 35°57' W 005°30'9516.8
2017-Oct-16 07:51N 36°10' W 007°27'617.1
2017-Oct-16 07:30N 36°11' W 007°34'916.9
2017-Oct-16 07:00N 36°14' W 007°44'816.6
2017-Oct-16 06:30N 36°16' W 007°54'2216.9
2017-Oct-16 05:13N 36°21' W 008°20'732.2
2017-Oct-16 05:00N 36°18' W 008°12'11459.1 120 / 121017.910.8 21.619.421.8
2017-Oct-16 04:58N 36°21' W 008°25'917.2
2017-Oct-16 04:27N 36°24' W 008°36'817.5
2017-Oct-16 03:58N 36°27' W 008°46'816.8
2017-Oct-16 03:30N 36°29' W 008°55'917.0
2017-Oct-16 03:00N 36°31' W 009°06'917.8
2017-Oct-16 02:30N 36°33' W 009°16'918.0
2017-Oct-16 02:00N 36°40' W 009°24'917.7
2017-Oct-16 01:30N 36°46' W 009°32'918.3
2017-Oct-16 01:00N 36°55' W 009°35'8502.1
2017-Oct-16 01:00N 36°48' W 009°30'1734.7 120 / 151018.1 5.4 20.819.920.7
2017-Oct-16 00:30N 37°04' W 009°38'918.3
2017-Oct-16 00:00N 37°13' W 009°40'918.4
2017-Oct-15 23:30N 37°22' W 009°43'918.1
2017-Oct-15 23:00N 37°30' W 009°46'918.2
2017-Oct-15 22:30N 37°39' W 009°48'918.0
2017-Oct-15 22:00N 37°48' W 009°51'918.6
2017-Oct-15 21:30N 37°57' W 009°54'918.8
2017-Oct-15 21:00N 38°06' W 009°57'1328492.4
2017-Oct-15 21:00N 35°54' W 009°54'141291.1 170 / 291016.2 2.2 20.919.518.9
2017-Oct-15 20:30N 38°15' W 009°60'918.1
2017-Oct-15 20:00N 38°24' W 010°02'917.8
2017-Oct-15 19:30N 38°33' W 010°04'918.0
2017-Oct-15 19:00N 38°41' W 010°06'918.0
2017-Oct-15 18:30N 38°50' W 010°06'917.7
2017-Oct-15 18:00N 38°59' W 010°06'918.0
2017-Oct-15 17:31N 39°08' W 010°06'917.9
2017-Oct-15 17:00N 39°17' W 010°06'11721.0
2017-Oct-15 17:00N 39°06' W 010°06'2041.8 200 / 221013.9 5.4 21.216.819.8
2017-Oct-15 16:30N 39°26' W 010°06'917.8
2017-Oct-15 16:00N 39°35' W 010°06'917.8
2017-Oct-15 15:30N 39°44' W 010°06'3413.5
2017-Oct-15 13:00N 40°18' W 010°06'14017.5 150 / 301013.210.8 22.213.618.3
2017-Oct-15 05:00N 42°36' W 010°36'7719.2 170 / 251015.1 5.4 19.817.717.2
2017-Oct-15 01:00N 43°42' W 009°42'8621.7 170 / 211016.210.8 18.714.418.2
2017-Oct-14 21:03N 44°56' W 008°42'118.2
2017-Oct-14 21:00N 44°57' W 008°41'1217.9
2017-Oct-14 20:18N 45°07' W 008°32'618.0
2017-Oct-14 19:59N 45°12' W 008°28'918.2
2017-Oct-14 19:30N 45°20' W 008°21'1018.3
2017-Oct-14 18:59N 45°28' W 008°14'1312.9
2017-Oct-14 18:00N 45°36' W 008°00'7117.7 160 / 221022.5 5.4 17.515.817.6
2017-Oct-14 14:00N 46°36' W 007°06'3725.3 140 / 161020.910.8 16.714.116.8
2017-Oct-14 12:33N 47°09' W 006°42'318.5
2017-Oct-14 12:24N 47°11' W 006°40'918.1
2017-Oct-14 11:53N 47°19' W 006°33'717.8
2017-Oct-14 11:30N 47°25' W 006°27'917.8
2017-Oct-14 11:01N 47°32' W 006°20'917.8
2017-Oct-14 10:31N 47°40' W 006°13'610.7
2017-Oct-14 10:00N 47°42' W 006°06'6509.0 130 / 101024.8 2.2 15.513.015.9
2017-Oct-14 09:59N 47°48' W 006°06'917.7
2017-Oct-14 09:29N 47°55' W 005°59'817.7
2017-Oct-14 09:00N 48°02' W 005°52'917.8
2017-Oct-14 08:30N 48°10' W 005°45'917.9
2017-Oct-14 08:01N 48°17' W 005°38'917.9
2017-Oct-14 07:30N 48°25' W 005°31'918.1
2017-Oct-14 07:00N 48°32' W 005°23'917.5
2017-Oct-14 06:31N 48°39' W 005°14'917.6
2017-Oct-14 06:00N 48°45' W 005°04'10658.5
2017-Oct-14 06:00N 48°36' W 005°12'1940.2 160 / 171024.5 2.2 14.313.814.1
2017-Oct-14 05:30N 48°51' W 004°53'1019.4
2017-Oct-14 05:01N 48°58' W 004°42'1019.3
2017-Oct-14 04:31N 49°04' W 004°31'1019.1
2017-Oct-14 03:59N 49°11' W 004°20'1018.8
2017-Oct-14 03:28N 49°17' W 004°09'918.5
2017-Oct-14 03:00N 49°24' W 004°01'918.1
2017-Oct-14 02:29N 49°30' W 003°50'2 3.4
2017-Oct-14 02:00N 49°30' W 003°48'8520.2 200 / 201023.910.8 15.714.315.4
2017-Oct-14 01:59N 49°36' W 003°40'817.3
2017-Oct-14 01:30N 49°40' W 003°28'917.6
2017-Oct-14 01:00N 49°47' W 003°21'917.4
2017-Oct-14 00:30N 49°54' W 003°13'917.4
2017-Oct-14 00:00N 49°59' W 003°01'917.5
2017-Oct-13 23:30N 50°02' W 002°48'918.1
2017-Oct-13 22:59N 50°05' W 002°35'918.6
2017-Oct-13 22:30N 50°08' W 002°21'1019.6
2017-Oct-13 22:00N 50°06' W 002°06'62503.7 210 / 181024.410.8 16.314.416.2
2017-Oct-13 21:59N 50°12' W 002°07'919.4
2017-Oct-13 21:30N 50°16' W 001°54'1019.6
2017-Oct-13 21:00N 50°20' W 001°41'1019.9
2017-Oct-13 20:30N 50°26' W 001°27'1019.5
2017-Oct-13 20:00N 50°29' W 001°13'1019.2
2017-Oct-13 19:30N 50°34' W 001°00'713.2
2017-Oct-13 19:00N 50°41' W 000°58'612.0
2017-Oct-13 18:30N 50°45' W 001°05'816.6
2017-Oct-13 18:01N 50°47' W 001°18'4 8.7
2017-Oct-13 17:31N 50°51' W 001°20'4 6.5
2017-Oct-13 16:58N 50°53' W 001°24'0 0.0
2017-Oct-13 16:28N 50°53' W 001°24'0 0.0
2017-Oct-13 15:58N 50°53' W 001°24'0 0.0
2017-Oct-13 15:28N 50°53' W 001°24'0 0.0
2017-Oct-13 14:58N 50°53' W 001°24'0 0.0
2017-Oct-13 14:28N 50°53' W 001°24'0 0.0
2017-Oct-13 13:55N 50°53' W 001°24'0 0.0
2017-Oct-13 13:28N 50°53' W 001°24'0 0.0
2017-Oct-13 12:55N 50°53' W 001°24'0 0.0
2017-Oct-13 12:28N 50°53' W 001°24'0 0.0
2017-Oct-13 11:58N 50°53' W 001°24'0 0.0
2017-Oct-13 11:28N 50°53' W 001°24'0 0.0
2017-Oct-13 10:58N 50°53' W 001°24'0 0.0
2017-Oct-13 10:28N 50°53' W 001°24'0 0.0
2017-Oct-13 09:58N 50°53' W 001°24'0 0.0
2017-Oct-13 09:28N 50°53' W 001°24'0 0.0
2017-Oct-13 08:58N 50°53' W 001°24'0 0.0
2017-Oct-13 08:28N 50°53' W 001°24'0 0.0
2017-Oct-13 07:58N 50°53' W 001°24'0 0.0
2017-Oct-13 07:28N 50°53' W 001°24'0 0.0
2017-Oct-13 06:58N 50°53' W 001°24'0 0.0
2017-Oct-13 06:25N 50°53' W 001°24'0 0.0
2017-Oct-13 05:58N 50°53' W 001°24'0 0.0
2017-Oct-13 05:28N 50°53' W 001°24'0 0.0
2017-Oct-13 05:00N 50°53' W 001°24'1 2.1
2017-Oct-13 04:30N 50°52' W 001°23'510.0
2017-Oct-13 04:01N 50°49' W 001°18'510.4
2017-Oct-13 03:31N 50°46' W 001°11'917.5
2017-Oct-13 03:01N 50°42' W 000°59'510.4
2017-Oct-13 02:30N 50°37' W 000°59'713.9
2017-Oct-13 02:00N 50°32' W 001°05'918.4
2017-Oct-13 01:30N 50°28' W 001°18'1019.0
2017-Oct-13 01:00N 50°24' W 001°32'3219.0
2017-Oct-12 23:21N 50°05' W 002°12'2619.1
2017-Oct-12 22:00N 49°53' W 002°46'1019.2
2017-Oct-12 21:30N 49°48' W 002°60'1019.4
2017-Oct-12 21:00N 49°42' W 003°11'1019.2
2017-Oct-12 20:30N 49°36' W 003°23'1019.3
2017-Oct-12 19:59N 49°30' W 003°35'1019.3
2017-Oct-12 19:28N 49°24' W 003°47'919.1
2017-Oct-12 19:00N 49°18' W 003°57'1019.1
2017-Oct-12 18:30N 49°12' W 004°08'919.0
2017-Oct-12 18:00N 49°05' W 004°19'918.4
2017-Oct-12 17:30N 49°01' W 004°32'918.5
2017-Oct-12 17:00N 48°55' W 004°43'918.3
2017-Oct-12 16:30N 48°50' W 004°54'918.2
2017-Oct-12 16:00N 48°44' W 005°04'917.9
2017-Oct-12 15:30N 48°38' W 005°14'917.9
2017-Oct-12 15:00N 48°31' W 005°23'2018.0
2017-Oct-12 13:53N 48°14' W 005°39'8 9.2
2017-Oct-12 13:00N 48°06' W 005°42'7518.8 260 / 141022.810.8 16.815.416.4
2017-Oct-12 09:00N 47°00' W 006°36'7618.9 240 / 171023.010.8 17.516.516.5
2017-Oct-12 05:00N 45°54' W 007°30'7619.0 220 / 151022.110.8 17.516.717.6
2017-Oct-12 01:00N 44°48' W 008°24'7117.8 240 / 101022.910.8 17.815.118.1
2017-Oct-11 21:00N 43°48' W 009°18'195 9.3 230 / 61023.0 2.2 17.216.417.7
2017-Oct-11 00:01N 40°33' W 009°28'918.0
2017-Oct-10 23:30N 40°24' W 009°30'917.6
2017-Oct-10 23:01N 40°16' W 009°32'917.7
2017-Oct-10 22:30N 40°07' W 009°36'917.6
2017-Oct-10 22:01N 39°59' W 009°39'917.3
2017-Oct-10 21:30N 39°50' W 009°41'917.3
2017-Oct-10 21:00N 39°42' W 009°44'917.1
2017-Oct-10 20:31N 39°33' W 009°45'917.3
2017-Oct-10 20:01N 39°25' W 009°44'816.9
2017-Oct-10 19:31N 39°16' W 009°45'816.7
2017-Oct-10 19:01N 39°08' W 009°44'917.5
2017-Oct-10 18:31N 38°59' W 009°43'917.5
2017-Oct-10 18:01N 38°50' W 009°42'2149.0
2017-Oct-10 18:00N 38°48' W 009°42'612.9 340 / 91017.9 2.2 16.814.616.1
2017-Oct-10 17:31N 38°42' W 009°42'815.7
2017-Oct-10 17:01N 38°37' W 009°33'917.2
2017-Oct-10 16:31N 38°37' W 009°22'713.8
2017-Oct-10 15:59N 38°41' W 009°14'511.1
2017-Oct-10 15:30N 38°42' W 009°08'0 0.5
2017-Oct-10 14:58N 38°42' W 009°08'0 0.0
2017-Oct-10 13:58N 38°42' W 009°08'0 0.0
2017-Oct-10 13:28N 38°42' W 009°08'0 0.0
2017-Oct-10 12:58N 38°42' W 009°08'0 0.0
2017-Oct-10 12:28N 38°42' W 009°08'0 0.0
2017-Oct-10 11:58N 38°42' W 009°08'0 0.0
2017-Oct-10 11:28N 38°42' W 009°08'0 0.0
2017-Oct-10 10:55N 38°42' W 009°08'0 0.0
2017-Oct-10 10:25N 38°42' W 009°08'0 0.0
2017-Oct-10 09:58N 38°42' W 009°08'0 0.0
2017-Oct-10 09:28N 38°42' W 009°08'0 0.0
2017-Oct-10 08:58N 38°42' W 009°08'0 0.0
2017-Oct-10 08:28N 38°42' W 009°08'0 0.0
2017-Oct-10 07:58N 38°42' W 009°08'0 0.0
2017-Oct-10 07:25N 38°42' W 009°08'0 0.0
2017-Oct-10 06:58N 38°42' W 009°08'0 0.0
2017-Oct-10 06:28N 38°42' W 009°08'0 0.0
2017-Oct-10 05:58N 38°42' W 009°08'1 1.2
2017-Oct-10 05:30N 38°42' W 009°07'510.5
2017-Oct-10 05:00N 38°41' W 009°14'4 7.1
2017-Oct-10 04:30N 38°41' W 009°18'714.9
2017-Oct-10 04:01N 38°35' W 009°25'816.4
2017-Oct-10 03:31N 38°28' W 009°28'917.6
2017-Oct-10 03:00N 38°19' W 009°32'917.6
2017-Oct-10 02:30N 38°11' W 009°35'917.8
2017-Oct-10 02:01N 38°03' W 009°39'918.4
2017-Oct-10 01:31N 37°54' W 009°42'918.6
2017-Oct-10 01:00N 37°45' W 009°46'918.2
2017-Oct-10 00:30N 37°36' W 009°50'918.4
2017-Oct-10 00:01N 37°28' W 009°54'918.2
2017-Oct-09 23:30N 37°19' W 009°57'  
Track history (hours):
 
Tides and Currents Weather Stations Pressure Air Temp Water Temp Dewpoint Dewpoint Depression Visibility Wind Speed Wind Dir Waves Ship Positions

Britannia

Last reported at 2017-Oct-19 23:30 UTC. Time now 2017-Oct-19 23:55 UTC.
Position N 43°07' E 007°37'.

Length 330 m; draft 8.5 m.

Type: Passenger vessel. MMSI: 235106595.

Date/timePositionNaut miles runAvg speedWind from/ knotsBaromVisibWave heightAir tempDewpointWater temp
2017-Oct-19 23:30N 43°07' E 007°37'1615.4
2017-Oct-19 22:28N 42°59' E 007°18'919.6
2017-Oct-19 22:00N 42°58' E 007°06'1817.8
2017-Oct-19 21:00N 42°54' E 006°42'6018.7 060 / 301013.210.8 19.016.519.2
2017-Oct-19 17:47N 43°05' E 005°21'619.2
2017-Oct-19 17:30N 43°08' E 005°15'917.9
2017-Oct-19 17:01N 43°15' E 005°09'4224.4
2017-Oct-19 17:00N 43°12' E 005°06'1225.4 110 / 361009.510.8 22.013.019.3
2017-Oct-19 16:30N 43°21' E 005°18'1 2.4
2017-Oct-19 15:58N 43°21' E 005°20'0 0.0
2017-Oct-19 15:28N 43°21' E 005°20'0 0.0
2017-Oct-19 14:58N 43°21' E 005°20'0 0.0
2017-Oct-19 14:28N 43°21' E 005°20'0 0.0
2017-Oct-19 13:58N 43°21' E 005°20'0 0.0
2017-Oct-19 13:28N 43°21' E 005°20'0 0.0
2017-Oct-19 12:58N 43°21' E 005°20'0 0.0
2017-Oct-19 12:28N 43°21' E 005°20'0 0.0
2017-Oct-19 11:58N 43°21' E 005°20'0 0.0
2017-Oct-19 11:28N 43°21' E 005°20'0 0.0
2017-Oct-19 10:58N 43°21' E 005°20'0 0.0
2017-Oct-19 10:28N 43°21' E 005°20'0 0.0
2017-Oct-19 09:52N 43°21' E 005°20'0 0.0
2017-Oct-19 08:54N 43°21' E 005°20'0 0.0
2017-Oct-19 08:24N 43°21' E 005°20'0 0.0
2017-Oct-19 08:00N 43°21' E 005°20'0 0.0
2017-Oct-19 07:30N 43°21' E 005°20'0 0.0
2017-Oct-19 07:00N 43°21' E 005°20'0 0.0
2017-Oct-19 06:30N 43°21' E 005°20'0 0.0
2017-Oct-19 06:00N 43°21' E 005°20'0 0.0
2017-Oct-19 05:30N 43°21' E 005°20'0 0.0
2017-Oct-19 05:00N 43°21' E 005°20'0 0.8
2017-Oct-19 04:30N 43°21' E 005°19'3 5.4
2017-Oct-19 04:01N 43°19' E 005°17'815.8
2017-Oct-19 03:30N 43°13' E 005°10'1019.4
2017-Oct-19 03:01N 43°05' E 005°01'1019.2
2017-Oct-19 02:30N 42°58' E 004°53'918.7
2017-Oct-19 02:00N 42°51' E 004°44'11732.4
2017-Oct-19 02:00N 42°42' E 004°36'3 5.9 110 / 451010.110.8 19.017.419.2
2017-Oct-19 01:30N 42°45' E 004°36'917.1
2017-Oct-19 01:00N 42°38' E 004°29'916.9
2017-Oct-19 00:28N 42°32' E 004°21'11817.4
2017-Oct-18 17:43N 41°17' E 002°18'517.0
2017-Oct-18 17:26N 41°15' E 002°12'4 0.3
2017-Oct-18 05:22N 41°19' E 002°10'712.0
2017-Oct-18 04:47N 41°12' E 002°09'516.6
2017-Oct-18 04:31N 41°08' E 002°06'816.5
2017-Oct-18 04:01N 41°00' E 002°01'6333.2
2017-Oct-18 04:00N 41°06' E 002°00'6120.2 030 / 71015.710.8 22.615.823.0
2017-Oct-18 01:00N 40°12' E 001°24'14421.8 140 / 121017.310.8 21.617.923.2
2017-Oct-17 18:22N 38°05' W 000°05'820.9
2017-Oct-17 17:59N 37°58' W 000°10'1020.9
2017-Oct-17 17:31N 37°50' W 000°17'1020.8
2017-Oct-17 17:01N 37°41' W 000°24'5314.2
2017-Oct-17 17:00N 37°36' W 000°24'714.1 160 / 51019.410.8 22.518.123.3
2017-Oct-17 16:31N 37°33' W 000°32'1019.6
2017-Oct-17 16:01N 37°31' W 000°44'1020.4
2017-Oct-17 15:30N 37°32' W 000°57'4 0.4
2017-Oct-17 05:24N 37°36' W 000°59'11 9.8
2017-Oct-17 04:20N 37°26' W 001°04'4312.9
2017-Oct-17 01:00N 36°48' W 001°30'7218.1 030 / 151022.410.8 21.316.622.2
2017-Oct-16 21:00N 36°12' W 002°48'6315.8 070 / 91024.210.8 20.518.620.7
2017-Oct-16 17:00N 36°06' W 004°06'5120.2 090 / 131022.8 5.4 21.417.221.9
2017-Oct-16 14:27N 35°60' W 005°09'1818.5
2017-Oct-16 13:30N 35°57' W 005°30'9516.8
2017-Oct-16 07:51N 36°10' W 007°27'617.1
2017-Oct-16 07:30N 36°11' W 007°34'916.9
2017-Oct-16 07:00N 36°14' W 007°44'816.6
2017-Oct-16 06:30N 36°16' W 007°54'2216.9
2017-Oct-16 05:13N 36°21' W 008°20'732.2
2017-Oct-16 05:00N 36°18' W 008°12'11459.1 120 / 121017.910.8 21.619.421.8
2017-Oct-16 04:58N 36°21' W 008°25'917.2
2017-Oct-16 04:27N 36°24' W 008°36'817.5
2017-Oct-16 03:58N 36°27' W 008°46'816.8
2017-Oct-16 03:30N 36°29' W 008°55'917.0
2017-Oct-16 03:00N 36°31' W 009°06'917.8
2017-Oct-16 02:30N 36°33' W 009°16'918.0
2017-Oct-16 02:00N 36°40' W 009°24'917.7
2017-Oct-16 01:30N 36°46' W 009°32'918.3
2017-Oct-16 01:00N 36°55' W 009°35'8502.1
2017-Oct-16 01:00N 36°48' W 009°30'1734.7 120 / 151018.1 5.4 20.819.920.7
2017-Oct-16 00:30N 37°04' W 009°38'918.3
2017-Oct-16 00:00N 37°13' W 009°40'918.4
2017-Oct-15 23:30N 37°22' W 009°43'918.1
2017-Oct-15 23:00N 37°30' W 009°46'918.2
2017-Oct-15 22:30N 37°39' W 009°48'918.0
2017-Oct-15 22:00N 37°48' W 009°51'918.6
2017-Oct-15 21:30N 37°57' W 009°54'918.8
2017-Oct-15 21:00N 38°06' W 009°57'1328492.4
2017-Oct-15 21:00N 35°54' W 009°54'141291.1 170 / 291016.2 2.2 20.919.518.9
2017-Oct-15 20:30N 38°15' W 009°60'918.1
2017-Oct-15 20:00N 38°24' W 010°02'917.8
2017-Oct-15 19:30N 38°33' W 010°04'918.0
2017-Oct-15 19:00N 38°41' W 010°06'918.0
2017-Oct-15 18:30N 38°50' W 010°06'917.7
2017-Oct-15 18:00N 38°59' W 010°06'918.0
2017-Oct-15 17:31N 39°08' W 010°06'917.9
2017-Oct-15 17:00N 39°17' W 010°06'11721.0
2017-Oct-15 17:00N 39°06' W 010°06'2041.8 200 / 221013.9 5.4 21.216.819.8
2017-Oct-15 16:30N 39°26' W 010°06'917.8
2017-Oct-15 16:00N 39°35' W 010°06'917.8
2017-Oct-15 15:30N 39°44' W 010°06'3413.5
2017-Oct-15 13:00N 40°18' W 010°06'14017.5 150 / 301013.210.8 22.213.618.3
2017-Oct-15 05:00N 42°36' W 010°36'7719.2 170 / 251015.1 5.4 19.817.717.2
2017-Oct-15 01:00N 43°42' W 009°42'8621.7 170 / 211016.210.8 18.714.418.2
2017-Oct-14 21:03N 44°56' W 008°42'118.2
2017-Oct-14 21:00N 44°57' W 008°41'1217.9
2017-Oct-14 20:18N 45°07' W 008°32'618.0
2017-Oct-14 19:59N 45°12' W 008°28'918.2
2017-Oct-14 19:30N 45°20' W 008°21'1018.3
2017-Oct-14 18:59N 45°28' W 008°14'1312.9
2017-Oct-14 18:00N 45°36' W 008°00'7117.7 160 / 221022.5 5.4 17.515.817.6
2017-Oct-14 14:00N 46°36' W 007°06'3725.3 140 / 161020.910.8 16.714.116.8
2017-Oct-14 12:33N 47°09' W 006°42'318.5
2017-Oct-14 12:24N 47°11' W 006°40'918.1
2017-Oct-14 11:53N 47°19' W 006°33'717.8
2017-Oct-14 11:30N 47°25' W 006°27'917.8
2017-Oct-14 11:01N 47°32' W 006°20'917.8
2017-Oct-14 10:31N 47°40' W 006°13'610.7
2017-Oct-14 10:00N 47°42' W 006°06'6509.0 130 / 101024.8 2.2 15.513.015.9
2017-Oct-14 09:59N 47°48' W 006°06'917.7
2017-Oct-14 09:29N 47°55' W 005°59'817.7
2017-Oct-14 09:00N 48°02' W 005°52'917.8
2017-Oct-14 08:30N 48°10' W 005°45'917.9
2017-Oct-14 08:01N 48°17' W 005°38'917.9
2017-Oct-14 07:30N 48°25' W 005°31'918.1
2017-Oct-14 07:00N 48°32' W 005°23'917.5
2017-Oct-14 06:31N 48°39' W 005°14'917.6
2017-Oct-14 06:00N 48°45' W 005°04'10658.5
2017-Oct-14 06:00N 48°36' W 005°12'1940.2 160 / 171024.5 2.2 14.313.814.1
2017-Oct-14 05:30N 48°51' W 004°53'1019.4
2017-Oct-14 05:01N 48°58' W 004°42'1019.3
2017-Oct-14 04:31N 49°04' W 004°31'1019.1
2017-Oct-14 03:59N 49°11' W 004°20'1018.8
2017-Oct-14 03:28N 49°17' W 004°09'918.5
2017-Oct-14 03:00N 49°24' W 004°01'918.1
2017-Oct-14 02:29N 49°30' W 003°50'2 3.4
2017-Oct-14 02:00N 49°30' W 003°48'8520.2 200 / 201023.910.8 15.714.315.4
2017-Oct-14 01:59N 49°36' W 003°40'817.3
2017-Oct-14 01:30N 49°40' W 003°28'917.6
2017-Oct-14 01:00N 49°47' W 003°21'917.4
2017-Oct-14 00:30N 49°54' W 003°13'917.4
2017-Oct-14 00:00N 49°59' W 003°01'917.5
2017-Oct-13 23:30N 50°02' W 002°48'918.1
2017-Oct-13 22:59N 50°05' W 002°35'918.6
2017-Oct-13 22:30N 50°08' W 002°21'1019.6
2017-Oct-13 22:00N 50°06' W 002°06'62503.7 210 / 181024.410.8 16.314.416.2
2017-Oct-13 21:59N 50°12' W 002°07'919.4
2017-Oct-13 21:30N 50°16' W 001°54'1019.6
2017-Oct-13 21:00N 50°20' W 001°41'1019.9
2017-Oct-13 20:30N 50°26' W 001°27'1019.5
2017-Oct-13 20:00N 50°29' W 001°13'1019.2
2017-Oct-13 19:30N 50°34' W 001°00'713.2
2017-Oct-13 19:00N 50°41' W 000°58'612.0
2017-Oct-13 18:30N 50°45' W 001°05'816.6
2017-Oct-13 18:01N 50°47' W 001°18'4 8.7
2017-Oct-13 17:31N 50°51' W 001°20'4 6.5
2017-Oct-13 16:58N 50°53' W 001°24'0 0.0
2017-Oct-13 16:28N 50°53' W 001°24'0 0.0
2017-Oct-13 15:58N 50°53' W 001°24'0 0.0
2017-Oct-13 15:28N 50°53' W 001°24'0 0.0
2017-Oct-13 14:58N 50°53' W 001°24'0 0.0
2017-Oct-13 14:28N 50°53' W 001°24'0 0.0
2017-Oct-13 13:55N 50°53' W 001°24'0 0.0
2017-Oct-13 13:28N 50°53' W 001°24'0 0.0
2017-Oct-13 12:55N 50°53' W 001°24'0 0.0
2017-Oct-13 12:28N 50°53' W 001°24'0 0.0
2017-Oct-13 11:58N 50°53' W 001°24'0 0.0
2017-Oct-13 11:28N 50°53' W 001°24'0 0.0
2017-Oct-13 10:58N 50°53' W 001°24'0 0.0
2017-Oct-13 10:28N 50°53' W 001°24'0 0.0
2017-Oct-13 09:58N 50°53' W 001°24'0 0.0
2017-Oct-13 09:28N 50°53' W 001°24'0 0.0
2017-Oct-13 08:58N 50°53' W 001°24'0 0.0
2017-Oct-13 08:28N 50°53' W 001°24'0 0.0
2017-Oct-13 07:58N 50°53' W 001°24'0 0.0
2017-Oct-13 07:28N 50°53' W 001°24'0 0.0
2017-Oct-13 06:58N 50°53' W 001°24'0 0.0
2017-Oct-13 06:25N 50°53' W 001°24'0 0.0
2017-Oct-13 05:58N 50°53' W 001°24'0 0.0
2017-Oct-13 05:28N 50°53' W 001°24'0 0.0
2017-Oct-13 05:00N 50°53' W 001°24'1 2.1
2017-Oct-13 04:30N 50°52' W 001°23'510.0
2017-Oct-13 04:01N 50°49' W 001°18'510.4
2017-Oct-13 03:31N 50°46' W 001°11'917.5
2017-Oct-13 03:01N 50°42' W 000°59'510.4
2017-Oct-13 02:30N 50°37' W 000°59'713.9
2017-Oct-13 02:00N 50°32' W 001°05'918.4
2017-Oct-13 01:30N 50°28' W 001°18'1019.0
2017-Oct-13 01:00N 50°24' W 001°32'3219.0
2017-Oct-12 23:21N 50°05' W 002°12'2619.1
2017-Oct-12 22:00N 49°53' W 002°46'1019.2
2017-Oct-12 21:30N 49°48' W 002°60'1019.4
2017-Oct-12 21:00N 49°42' W 003°11'1019.2
2017-Oct-12 20:30N 49°36' W 003°23'1019.3
2017-Oct-12 19:59N 49°30' W 003°35'1019.3
2017-Oct-12 19:28N 49°24' W 003°47'919.1
2017-Oct-12 19:00N 49°18' W 003°57'1019.1
2017-Oct-12 18:30N 49°12' W 004°08'919.0
2017-Oct-12 18:00N 49°05' W 004°19'918.4
2017-Oct-12 17:30N 49°01' W 004°32'918.5
2017-Oct-12 17:00N 48°55' W 004°43'918.3
2017-Oct-12 16:30N 48°50' W 004°54'918.2
2017-Oct-12 16:00N 48°44' W 005°04'917.9
2017-Oct-12 15:30N 48°38' W 005°14'917.9
2017-Oct-12 15:00N 48°31' W 005°23'2018.0
2017-Oct-12 13:53N 48°14' W 005°39'8 9.2
2017-Oct-12 13:00N 48°06' W 005°42'7518.8 260 / 141022.810.8 16.815.416.4
2017-Oct-12 09:00N 47°00' W 006°36'7618.9 240 / 171023.010.8 17.516.516.5
2017-Oct-12 05:00N 45°54' W 007°30'7619.0 220 / 151022.110.8 17.516.717.6
2017-Oct-12 01:00N 44°48' W 008°24'7117.8 240 / 101022.910.8 17.815.118.1
2017-Oct-11 21:00N 43°48' W 009°18'195 9.3 230 / 61023.0 2.2 17.216.417.7
2017-Oct-11 00:01N 40°33' W 009°28'918.0
2017-Oct-10 23:30N 40°24' W 009°30'917.6
2017-Oct-10 23:01N 40°16' W 009°32'917.7
2017-Oct-10 22:30N 40°07' W 009°36'917.6
2017-Oct-10 22:01N 39°59' W 009°39'917.3
2017-Oct-10 21:30N 39°50' W 009°41'917.3
2017-Oct-10 21:00N 39°42' W 009°44'917.1
2017-Oct-10 20:31N 39°33' W 009°45'917.3
2017-Oct-10 20:01N 39°25' W 009°44'816.9
2017-Oct-10 19:31N 39°16' W 009°45'816.7
2017-Oct-10 19:01N 39°08' W 009°44'917.5
2017-Oct-10 18:31N 38°59' W 009°43'917.5
2017-Oct-10 18:01N 38°50' W 009°42'2149.0
2017-Oct-10 18:00N 38°48' W 009°42'612.9 340 / 91017.9 2.2 16.814.616.1
2017-Oct-10 17:31N 38°42' W 009°42'815.7
2017-Oct-10 17:01N 38°37' W 009°33'917.2
2017-Oct-10 16:31N 38°37' W 009°22'713.8
2017-Oct-10 15:59N 38°41' W 009°14'511.1
2017-Oct-10 15:30N 38°42' W 009°08'0 0.5
2017-Oct-10 14:58N 38°42' W 009°08'0 0.0
2017-Oct-10 13:58N 38°42' W 009°08'0 0.0
2017-Oct-10 13:28N 38°42' W 009°08'0 0.0
2017-Oct-10 12:58N 38°42' W 009°08'0 0.0
2017-Oct-10 12:28N 38°42' W 009°08'0 0.0
2017-Oct-10 11:58N 38°42' W 009°08'0 0.0
2017-Oct-10 11:28N 38°42' W 009°08'0 0.0
2017-Oct-10 10:55N 38°42' W 009°08'0 0.0
2017-Oct-10 10:25N 38°42' W 009°08'0 0.0
2017-Oct-10 09:58N 38°42' W 009°08'0 0.0
2017-Oct-10 09:28N 38°42' W 009°08'0 0.0
2017-Oct-10 08:58N 38°42' W 009°08'0 0.0
2017-Oct-10 08:28N 38°42' W 009°08'0 0.0
2017-Oct-10 07:58N 38°42' W 009°08'0 0.0
2017-Oct-10 07:25N 38°42' W 009°08'0 0.0
2017-Oct-10 06:58N 38°42' W 009°08'0 0.0
2017-Oct-10 06:28N 38°42' W 009°08'0 0.0
2017-Oct-10 05:58N 38°42' W 009°08'1 1.2
2017-Oct-10 05:30N 38°42' W 009°07'510.5
2017-Oct-10 05:00N 38°41' W 009°14'4 7.1
2017-Oct-10 04:30N 38°41' W 009°18'714.9
2017-Oct-10 04:01N 38°35' W 009°25'816.4
2017-Oct-10 03:31N 38°28' W 009°28'917.6
2017-Oct-10 03:00N 38°19' W 009°32'917.6
2017-Oct-10 02:30N 38°11' W 009°35'917.8
2017-Oct-10 02:01N 38°03' W 009°39'918.4
2017-Oct-10 01:31N 37°54' W 009°42'918.6
2017-Oct-10 01:00N 37°45' W 009°46'918.2
2017-Oct-10 00:30N 37°36' W 009°50'918.4
2017-Oct-10 00:01N 37°28' W 009°54'918.2
2017-Oct-09 23:30N 37°19' W 009°57'  

Dump ship's entire track history